Impacts METAR Board
IDs:

KSSF - San Antonio/Stinson, TX, US

Updated at: 1300 UTC 14 Dec 2019
Potential Impact None Slight Moderate High
Time 14/01Z 14/02Z 14/03Z 14/04Z 14/05Z 14/06Z 14/07Z 14/08Z 14/09Z 14/10Z 14/11Z 14/12Z 14/13Z
Temp65 60 54 52 49 50 49 48 46 45 42 43 41
Dewpt40 42 43 43 42 42 42 42 42 41 40 41 40
Altim29.83 29.84 29.85 29.85 29.87 29.86 29.87 29.87 29.86 29.85 29.85 29.86 29.85
VIS10 10 9 10 10 10 10 10 10 10 8 10 10
CIG-- -- -- -- -- -- -- -- -- -- -- -- --
CoverCLRCLRCLRCLRCLRCLRCLRCLRCLRCLRCLRCLRCLR
FltCatVFRVFRVFRVFRVFRVFRVFRVFRVFRVFRVFRVFRVFR
WX--------------------------
WDir2402800260030360000000
WSpd4 3 0 3 0 6 3 0 0 0 0 0 0
WGst-- -- -- -- -- -- -- -- -- -- -- -- --
Raw hourly METARs
KSSF 140053Z 24004KT 10SM CLR 18/04 A2983 RMK AO2 SLP102 T01830044
KSSF 140153Z 28003KT 10SM CLR 16/06 A2984 RMK AO2 SLP106 T01560056
KSSF 140253Z 00000KT 9SM CLR 12/06 A2985 RMK AO2 SLP110 T01220061 51014
KSSF 140353Z AUTO 26003KT 10SM CLR 11/06 A2985 RMK AO2 SLP108 T01110061
KSSF 140453Z AUTO 00000KT 10SM CLR 09/06 A2987 RMK AO2 SLP112 T00940056 402610022
KSSF 140553Z AUTO 03006KT 10SM CLR 10/06 A2986 RMK AO2 SLP110 T01000056 10211 20089 52003
KSSF 140653Z AUTO 36003KT 10SM CLR 09/06 A2987 RMK AO2 SLP110 T00940056
KSSF 140753Z AUTO 00000KT 10SM CLR 09/06 A2987 RMK AO2 SLP109 T00890056
KSSF 140853Z AUTO 00000KT 10SM CLR 08/06 A2986 RMK AO2 SLP108 T00780056 58001
KSSF 140953Z AUTO 00000KT 10SM CLR 07/05 A2985 RMK AO2 SLP106 T00720050
KSSF 141053Z AUTO 00000KT 8SM CLR 06/04 A2985 RMK AO2 SLP105 T00560044
KSSF 141153Z AUTO 00000KT 10SM CLR 06/05 A2986 RMK AO2 SLP108 T00610050 10117 20044 55002
KSSF 141253Z 00000KT 10SM CLR 05/04 A2985 RMK AO2 SLP110 T00500044



Page loaded:  13:46 UTC  |   05:46 AM Pacific  |   06:46 AM Mountain  |   07:46 AM Central  |   08:46 AM Eastern

 

ADVISORIES

FORECASTS

FORECASTS

OBSERVATIONS

USER TOOLS

ABOUT US